Time,TemperatureF,DewpointF,PressureIn,WindDirection,WindDirectionDegrees,WindSpeedMPH,WindSpeedGustMPH,Humidity,HourlyPrecipIn,Conditions,Clouds,dailyrainin,SoftwareType,DateUTC
2013-07-28 00:00:00,65.0,63.5,29.86,North,0,0.0,0.0,95,0.00,,,0.00,WUHU216DAVISVP2,2013-07-28 04:00:00,
2013-07-28 00:30:00,64.7,63.2,29.86,North,0,0.0,0.0,95,0.00,,,0.00,WUHU216DAVISVP2,2013-07-28 04:30:00,
2013-07-28 01:00:00,64.9,63.4,29.85,North,0,0.0,0.0,95,0.00,,,0.00,WUHU216DAVISVP2,2013-07-28 05:00:00,
2013-07-28 01:30:00,64.5,63.0,29.83,North,0,0.0,0.0,95,0.00,,,0.00,WUHU216DAVISVP2,2013-07-28 05:30:00,
2013-07-28 02:00:00,64.5,63.0,29.83,North,0,0.0,0.0,95,0.00,,,0.00,WUHU216DAVISVP2,2013-07-28 06:00:00,
2013-07-28 02:30:00,64.8,63.3,29.86,WNW,293,1.0,5.0,95,0.00,,,0.00,WUHU216DAVISVP2,2013-07-28 06:30:00,
2013-07-28 03:00:00,64.8,63.6,29.87,WSW,248,1.0,4.0,96,0.04,,,0.04,WUHU216DAVISVP2,2013-07-28 07:00:00,
2013-07-28 03:30:00,65.1,63.6,29.87,West,270,1.0,6.0,95,0.16,,,0.20,WUHU216DAVISVP2,2013-07-28 07:30:00,
2013-07-28 04:00:00,64.6,63.1,29.88,ESE,113,0.0,1.0,95,0.06,,,0.26,WUHU216DAVISVP2,2013-07-28 08:00:00,
2013-07-28 04:30:00,64.6,63.4,29.89,ESE,113,0.0,1.0,96,0.04,,,0.30,WUHU216DAVISVP2,2013-07-28 08:30:00,
2013-07-28 05:00:00,64.2,63.0,29.89,ESE,113,0.0,1.0,96,0.00,,,0.30,WUHU216DAVISVP2,2013-07-28 09:00:00,
2013-07-28 05:30:00,63.3,62.1,29.90,North,0,0.0,0.0,96,0.00,,,0.30,WUHU216DAVISVP2,2013-07-28 09:30:00,
2013-07-28 06:00:00,62.7,61.5,29.91,North,0,0.0,0.0,96,0.00,,,0.30,WUHU216DAVISVP2,2013-07-28 10:00:00,
2013-07-28 06:30:00,62.5,61.3,29.91,North,0,0.0,0.0,96,0.00,,,0.30,WUHU216DAVISVP2,2013-07-28 10:30:00,
2013-07-28 07:00:00,63.0,61.5,29.92,North,0,0.0,0.0,95,0.00,,,0.30,WUHU216DAVISVP2,2013-07-28 11:00:00,
2013-07-28 07:30:00,63.3,62.1,29.93,NE,45,0.0,1.0,96,0.00,,,0.30,WUHU216DAVISVP2,2013-07-28 11:30:00,
2013-07-28 08:00:00,64.3,62.8,29.94,NE,45,0.0,1.0,95,0.00,,,0.30,WUHU216DAVISVP2,2013-07-28 12:00:00,
2013-07-28 08:30:00,65.1,63.6,29.94,NE,45,0.0,2.0,95,0.00,,,0.30,WUHU216DAVISVP2,2013-07-28 12:30:00,
2013-07-28 09:00:00,67.1,65.9,29.95,NNE,23,0.0,1.0,96,0.00,,,0.30,WUHU216DAVISVP2,2013-07-28 13:00:00,
2013-07-28 09:30:00,69.4,66.7,29.94,SW,225,0.0,2.0,91,0.00,,,0.30,WUHU216DAVISVP2,2013-07-28 13:30:00,
2013-07-28 10:00:00,70.4,66.0,29.94,West,270,2.0,5.0,86,0.00,,,0.30,WUHU216DAVISVP2,2013-07-28 14:00:00,
2013-07-28 10:30:00,72.2,65.7,29.94,West,270,2.0,5.0,80,0.00,,,0.30,WUHU216DAVISVP2,2013-07-28 14:30:00,
2013-07-28 11:00:00,73.6,65.9,29.94,West,270,3.0,7.0,77,0.00,,,0.30,WUHU216DAVISVP2,2013-07-28 15:00:00,
2013-07-28 11:30:00,72.8,64.0,29.95,West,270,3.0,7.0,74,0.00,,,0.30,WUHU216DAVISVP2,2013-07-28 15:30:00,
2013-07-28 12:00:00,73.4,65.0,29.94,West,270,2.0,6.0,75,0.00,,,0.30,WUHU216DAVISVP2,2013-07-28 16:00:00,
2013-07-28 12:30:00,76.1,65.6,29.94,West,270,2.0,8.0,70,0.00,,,0.30,WUHU216DAVISVP2,2013-07-28 16:30:00,
2013-07-28 13:00:00,76.1,62.1,29.94,West,270,3.0,8.0,62,0.00,,,0.30,WUHU216DAVISVP2,2013-07-28 17:00:00,
2013-07-28 13:30:00,79.0,63.4,29.94,West,270,3.0,8.0,59,0.00,,,0.30,WUHU216DAVISVP2,2013-07-28 17:30:00,
2013-07-28 14:00:00,77.1,63.5,29.94,West,270,3.0,9.0,63,0.00,,,0.30,WUHU216DAVISVP2,2013-07-28 18:00:00,
2013-07-28 14:30:00,77.0,63.4,29.94,West,270,3.0,7.0,63,0.00,,,0.30,WUHU216DAVISVP2,2013-07-28 18:30:00,
2013-07-28 15:00:00,78.0,62.0,29.93,West,270,3.0,11.0,58,0.00,,,0.30,WUHU216DAVISVP2,2013-07-28 19:00:00,
2013-07-28 15:30:00,78.8,62.3,29.92,West,270,3.0,9.0,57,0.00,,,0.30,WUHU216DAVISVP2,2013-07-28 19:30:00,
2013-07-28 16:00:00,78.7,59.6,29.92,West,270,3.0,11.0,52,0.00,,,0.30,WUHU216DAVISVP2,2013-07-28 20:00:00,
2013-07-28 16:30:00,79.4,61.3,29.92,West,270,3.0,10.0,54,0.00,,,0.30,WUHU216DAVISVP2,2013-07-28 20:30:00,
2013-07-28 17:00:00,78.5,60.5,29.92,WNW,293,3.0,9.0,54,0.00,,,0.30,WUHU216DAVISVP2,2013-07-28 21:00:00,
2013-07-28 17:30:00,78.6,60.0,29.93,West,270,3.0,7.0,53,0.00,,,0.30,WUHU216DAVISVP2,2013-07-28 21:30:00,
2013-07-28 18:00:00,78.1,60.1,29.93,West,270,3.0,8.0,54,0.00,,,0.30,WUHU216DAVISVP2,2013-07-28 22:00:00,
2013-07-28 18:30:00,78.1,60.6,29.93,West,270,2.0,5.0,55,0.00,,,0.30,WUHU216DAVISVP2,2013-07-28 22:30:00,
2013-07-28 19:00:00,76.5,61.1,29.94,WNW,293,2.0,8.0,59,0.00,,,0.30,WUHU216DAVISVP2,2013-07-28 23:00:00,
2013-07-28 19:30:00,76.6,61.7,29.96,West,270,1.0,4.0,60,0.00,,,0.30,WUHU216DAVISVP2,2013-07-28 23:30:00,
2013-07-28 20:00:00,73.4,62.2,29.98,West,270,0.0,2.0,68,0.00,,,0.30,WUHU216DAVISVP2,2013-07-29 00:00:00,
2013-07-28 20:30:00,65.9,60.6,29.99,ENE,68,0.0,2.0,83,0.00,,,0.30,WUHU216DAVISVP2,2013-07-29 00:30:00,
2013-07-28 21:00:00,63.7,60.1,30.00,ESE,113,0.0,2.0,88,0.00,,,0.30,WUHU216DAVISVP2,2013-07-29 01:00:00,
2013-07-28 21:30:00,62.4,59.4,30.02,NNW,338,0.0,1.0,90,0.00,,,0.30,WUHU216DAVISVP2,2013-07-29 01:30:00,
2013-07-28 22:00:00,61.8,59.1,30.03,North,0,0.0,0.0,91,0.00,,,0.30,WUHU216DAVISVP2,2013-07-29 02:00:00,
2013-07-28 22:30:00,60.0,58.0,30.04,North,0,0.0,0.0,93,0.00,,,0.30,WUHU216DAVISVP2,2013-07-29 02:30:00,
2013-07-28 23:00:00,58.7,57.0,30.05,North,0,0.0,0.0,94,0.00,,,0.30,WUHU216DAVISVP2,2013-07-29 03:00:00,
2013-07-28 23:30:00,57.4,56.0,30.05,North,0,0.0,0.0,95,0.00,,,0.30,WUHU216DAVISVP2,2013-07-29 03:30:00,